TimeCDT,TemperatureF,Dew PointF,Humidity,Sea Level PressureIn,VisibilityMPH,Wind Direction,Wind SpeedMPH,Gust SpeedMPH,PrecipitationIn,Events,Conditions,WindDirDegrees,DateUTC
12:12 AM,31.8,21.7,66,30.30,10.0,Calm,Calm,-,N/A,,Overcast,0,2013-03-27 05:12:00
12:32 AM,32.0,21.7,66,30.30,10.0,West,3.5,-,N/A,,Overcast,280,2013-03-27 05:32:00
12:52 AM,31.6,21.7,67,30.30,10.0,Calm,Calm,-,N/A,,Overcast,0,2013-03-27 05:52:00
1:12 AM,31.5,21.7,67,30.30,10.0,Calm,Calm,-,N/A,,Overcast,0,2013-03-27 06:12:00
1:32 AM,30.7,21.9,70,30.31,10.0,NNW,3.5,-,N/A,,Overcast,330,2013-03-27 06:32:00
1:52 AM,30.6,21.9,70,30.31,10.0,West,3.5,-,N/A,,Overcast,280,2013-03-27 06:52:00
2:12 AM,30.9,21.6,68,30.31,10.0,Calm,Calm,-,N/A,,Overcast,0,2013-03-27 07:12:00
2:32 AM,30.2,22.1,72,30.31,10.0,WNW,3.5,-,N/A,,Overcast,300,2013-03-27 07:32:00
2:52 AM,30.4,21.9,71,30.30,10.0,WNW,3.5,-,N/A,,Overcast,300,2013-03-27 07:52:00
3:12 AM,30.2,22.1,72,30.30,10.0,Calm,Calm,-,N/A,,Overcast,0,2013-03-27 08:12:00
3:32 AM,30.0,22.1,72,30.30,10.0,North,-9999.0,-,N/A,,Overcast,0,2013-03-27 08:32:00
3:52 AM,29.5,22.6,76,30.30,10.0,North,-9999.0,-,N/A,,Overcast,0,2013-03-27 08:52:00
4:12 AM,29.1,22.6,77,30.30,10.0,North,-9999.0,-,N/A,,Overcast,0,2013-03-27 09:12:00
4:32 AM,28.9,22.5,77,30.30,10.0,North,-9999.0,-,N/A,,Overcast,0,2013-03-27 09:32:00
4:53 AM,28.4,22.1,77,30.30,10.0,North,-9999.0,-,N/A,,Overcast,0,2013-03-27 09:53:00
5:12 AM,27.5,21.7,79,30.30,10.0,North,-9999.0,-,N/A,,Mostly Cloudy,0,2013-03-27 10:12:00
5:32 AM,26.6,21.4,81,30.30,10.0,North,-9999.0,-,N/A,,Scattered Clouds,0,2013-03-27 10:32:00
5:52 AM,25.9,21.2,82,30.31,10.0,North,-9999.0,-,N/A,,Clear,0,2013-03-27 10:52:00
6:12 AM,25.7,21.2,83,30.31,10.0,North,-9999.0,-,N/A,,Scattered Clouds,0,2013-03-27 11:12:00
6:32 AM,25.5,21.0,83,30.31,10.0,North,-9999.0,-,N/A,,Mostly Cloudy,0,2013-03-27 11:32:00
6:52 AM,25.2,20.8,84,30.31,10.0,North,-9999.0,-,N/A,,Scattered Clouds,0,2013-03-27 11:52:00
7:12 AM,25.0,20.7,84,30.32,-9999.0,North,-9999.0,-,N/A,,Unknown,0,2013-03-27 12:12:00
7:32 AM,24.8,20.3,83,30.32,10.0,North,-9999.0,-,N/A,,Overcast,0,2013-03-27 12:32:00
7:52 AM,25.2,20.7,83,30.33,10.0,North,-9999.0,-,N/A,,Mostly Cloudy,0,2013-03-27 12:52:00
8:12 AM,25.7,20.7,81,30.33,10.0,North,-9999.0,-,N/A,,Scattered Clouds,0,2013-03-27 13:12:00
8:33 AM,26.1,20.3,79,30.33,10.0,North,-9999.0,-,N/A,,Clear,0,2013-03-27 13:33:00
8:52 AM,26.8,20.3,77,30.33,10.0,North,-9999.0,-,N/A,,Clear,0,2013-03-27 13:52:00
9:12 AM,28.4,20.5,72,30.33,10.0,Calm,Calm,-,N/A,,Clear,0,2013-03-27 14:12:00
9:32 AM,31.1,20.1,64,30.33,10.0,Calm,Calm,-,N/A,,Clear,0,2013-03-27 14:32:00
9:52 AM,32.0,19.9,61,30.33,10.0,Calm,Calm,-,N/A,,Clear,0,2013-03-27 14:52:00
10:12 AM,33.4,19.9,58,30.34,10.0,Calm,Calm,-,N/A,,Clear,0,2013-03-27 15:12:00
10:32 AM,35.8,19.8,52,30.33,10.0,Calm,Calm,-,N/A,,Clear,0,2013-03-27 15:32:00
10:52 AM,36.1,18.7,49,30.34,10.0,Calm,Calm,-,N/A,,Clear,0,2013-03-27 15:52:00
11:12 AM,37.2,18.3,46,30.34,10.0,Calm,Calm,-,N/A,,Clear,0,2013-03-27 16:12:00
11:33 AM,38.3,16.3,41,30.34,10.0,Calm,Calm,-,N/A,,Clear,0,2013-03-27 16:33:00
11:52 AM,38.8,12.6,34,30.34,10.0,Calm,Calm,-,N/A,,Scattered Clouds,0,2013-03-27 16:52:00
12:12 PM,39.0,12.9,34,30.33,10.0,Calm,Calm,-,N/A,,Mostly Cloudy,0,2013-03-27 17:12:00
12:32 PM,39.2,16.2,39,30.33,10.0,Calm,Calm,-,N/A,,Scattered Clouds,0,2013-03-27 17:32:00
12:52 PM,39.6,14.7,36,30.33,10.0,Calm,Calm,-,N/A,,Clear,0,2013-03-27 17:52:00
1:12 PM,39.6,17.2,41,30.33,10.0,Calm,Calm,-,N/A,,Clear,0,2013-03-27 18:12:00
1:32 PM,39.9,15.8,38,30.33,10.0,Calm,Calm,-,N/A,,Clear,0,2013-03-27 18:32:00
1:52 PM,39.6,15.8,38,30.32,10.0,Calm,Calm,-,N/A,,Clear,0,2013-03-27 18:52:00
2:13 PM,40.6,16.7,38,30.32,10.0,South,5.8,-,N/A,,Clear,190,2013-03-27 19:13:00
2:32 PM,40.5,17.1,39,30.32,10.0,South,5.8,-,N/A,,Clear,170,2013-03-27 19:32:00
2:52 PM,40.6,16.5,38,30.31,10.0,SE,5.8,-,N/A,,Clear,140,2013-03-27 19:52:00
3:13 PM,40.6,17.4,39,30.31,10.0,SE,8.1,-,N/A,,Clear,140,2013-03-27 20:13:00
3:32 PM,40.6,17.4,39,30.31,10.0,SSE,6.9,-,N/A,,Clear,160,2013-03-27 20:32:00
3:52 PM,40.6,17.1,39,30.31,10.0,SSE,10.4,-,N/A,,Clear,160,2013-03-27 20:52:00
4:12 PM,40.5,18.3,41,30.31,10.0,South,9.2,-,N/A,,Clear,170,2013-03-27 21:12:00
4:32 PM,40.6,17.8,40,30.30,10.0,SSW,6.9,-,N/A,,Clear,200,2013-03-27 21:32:00
4:52 PM,39.9,17.8,41,30.30,10.0,SSW,4.6,-,N/A,,Clear,200,2013-03-27 21:52:00
5:12 PM,40.3,17.4,40,30.30,10.0,SSE,5.8,-,N/A,,Clear,160,2013-03-27 22:12:00
5:33 PM,39.9,17.4,40,30.30,10.0,South,4.6,-,N/A,,Clear,170,2013-03-27 22:33:00
5:52 PM,39.6,17.6,41,30.30,10.0,SW,4.6,-,N/A,,Clear,220,2013-03-27 22:52:00
6:12 PM,39.4,18.3,43,30.30,10.0,SSW,3.5,-,N/A,,Clear,210,2013-03-27 23:12:00
6:33 PM,39.4,18.0,42,30.30,10.0,SSW,5.8,-,N/A,,Clear,200,2013-03-27 23:33:00
6:52 PM,38.7,18.1,44,30.30,10.0,SSW,4.6,-,N/A,,Clear,210,2013-03-27 23:52:00
7:12 PM,38.3,18.1,44,30.30,10.0,SSW,4.6,-,N/A,,Clear,210,2013-03-28 00:12:00
7:32 PM,36.9,19.2,49,30.30,10.0,SW,4.6,-,N/A,,Clear,220,2013-03-28 00:32:00
7:52 PM,37.0,18.5,47,30.30,10.0,SSW,3.5,-,N/A,,Clear,210,2013-03-28 00:52:00
8:13 PM,36.1,18.7,49,30.31,10.0,SW,3.5,-,N/A,,Clear,220,2013-03-28 01:13:00
8:32 PM,35.8,18.1,49,30.31,10.0,Calm,Calm,-,N/A,,Clear,0,2013-03-28 01:32:00
8:52 PM,35.1,18.7,51,30.31,10.0,Calm,Calm,-,N/A,,Clear,0,2013-03-28 01:52:00
9:12 PM,34.7,18.5,52,30.32,10.0,Calm,Calm,-,N/A,,Clear,0,2013-03-28 02:12:00
9:32 PM,32.5,20.1,60,30.32,10.0,Calm,Calm,-,N/A,,Clear,0,2013-03-28 02:32:00
9:52 PM,31.8,21.0,64,30.33,10.0,Calm,Calm,-,N/A,,Clear,0,2013-03-28 02:52:00
10:13 PM,31.1,20.5,65,30.33,10.0,Calm,Calm,-,N/A,,Clear,0,2013-03-28 03:13:00
10:32 PM,30.7,20.3,65,30.33,10.0,Calm,Calm,-,N/A,,Clear,0,2013-03-28 03:32:00
10:52 PM,30.6,20.5,66,30.33,10.0,Calm,Calm,-,N/A,,Clear,0,2013-03-28 03:52:00
11:12 PM,30.2,20.5,67,30.34,10.0,Calm,Calm,-,N/A,,Clear,0,2013-03-28 04:12:00
11:32 PM,29.7,20.3,68,30.33,10.0,Calm,Calm,-,N/A,,Clear,0,2013-03-28 04:32:00
11:52 PM,29.8,20.1,67,30.34,10.0,Calm,Calm,-,N/A,,Clear,0,2013-03-28 04:52:00